VBD205 SBKP-SBGL
Flight info
| Callsign | VBD205 |
|---|---|
| Flight time | 1h 3m |
| Altitude | 12000 |
| Route | UREMI UZ42 VUREP |
| Aircraft | TBM9/L-SDFGRWY/S |
Departure
| Time | 2026-04-27 14:25 |
|---|---|
| Airport | Viracopos International Airport (SBKP) |
Arrival
| Time | 2026-04-27 15:29 |
|---|---|
| Airport | Rio Galeão – Tom Jobim International Airport (SBGL) |
| Time | Latitude | Longitude | Altitude | Speed | Heading |
|---|---|---|---|---|---|
| 2026-04-27 14:08 | -23.00426 | -47.14541 | 2148 ft | 0 kts | 38° |
| 2026-04-27 14:22 | -23.00415 | -47.14535 | 2148 ft | 6 kts | 26° |
| 2026-04-27 14:22 | -23.00352 | -47.14491 | 2148 ft | 15 kts | 359° |
| 2026-04-27 14:22 | -23.00275 | -47.14577 | 2147 ft | 18 kts | 309° |
| 2026-04-27 14:22 | -23.00159 | -47.14576 | 2146 ft | 19 kts | 332° |
| 2026-04-27 14:23 | -23.00065 | -47.14684 | 2145 ft | 21 kts | 351° |
| 2026-04-27 14:23 | -23.00007 | -47.14671 | 2144 ft | 0 kts | 52° |
| 2026-04-27 14:24 | -22.99997 | -47.14657 | 2144 ft | 8 kts | 49° |
| 2026-04-27 14:24 | -22.99969 | -47.14614 | 2144 ft | 13 kts | 72° |
| 2026-04-27 14:24 | -22.99987 | -47.14502 | 2144 ft | 18 kts | 117° |
| 2026-04-27 14:24 | -23.00082 | -47.14356 | 2147 ft | 42 kts | 129° |
| 2026-04-27 14:25 | -23.00396 | -47.13933 | 2167 ft | 98 kts | 129° |
| 2026-04-27 14:25 | -23.00767 | -47.13225 | 2448 ft | 119 kts | 103° |
| 2026-04-27 14:25 | -23.00957 | -47.12289 | 2767 ft | 135 kts | 105° |
| 2026-04-27 14:25 | -23.01219 | -47.11260 | 3103 ft | 148 kts | 106° |
| 2026-04-27 14:26 | -23.01492 | -47.10150 | 3442 ft | 156 kts | 105° |
| 2026-04-27 14:26 | -23.01778 | -47.08988 | 3782 ft | 162 kts | 105° |
| 2026-04-27 14:26 | -23.02068 | -47.07786 | 4128 ft | 168 kts | 105° |
| 2026-04-27 14:26 | -23.02372 | -47.06535 | 4456 ft | 173 kts | 105° |
| 2026-04-27 14:27 | -23.02680 | -47.05259 | 4785 ft | 176 kts | 105° |
| 2026-04-27 14:27 | -23.02989 | -47.03969 | 5110 ft | 176 kts | 105° |
| 2026-04-27 14:27 | -23.03300 | -47.02676 | 5437 ft | 178 kts | 105° |
| 2026-04-27 14:27 | -23.03615 | -47.01376 | 5763 ft | 178 kts | 105° |
| 2026-04-27 14:28 | -23.03928 | -47.00071 | 6088 ft | 179 kts | 105° |
| 2026-04-27 14:28 | -23.04245 | -46.98762 | 6411 ft | 179 kts | 105° |
| 2026-04-27 14:28 | -23.04559 | -46.97449 | 6733 ft | 180 kts | 105° |
| 2026-04-27 14:28 | -23.04875 | -46.96133 | 7056 ft | 180 kts | 105° |
| 2026-04-27 14:29 | -23.05191 | -46.94816 | 7384 ft | 180 kts | 105° |
| 2026-04-27 14:29 | -23.05505 | -46.93498 | 7716 ft | 181 kts | 105° |
| 2026-04-27 14:29 | -23.05825 | -46.92175 | 8029 ft | 181 kts | 105° |
| 2026-04-27 14:29 | -23.06142 | -46.90857 | 8355 ft | 181 kts | 105° |
| 2026-04-27 14:30 | -23.06458 | -46.89537 | 8676 ft | 180 kts | 105° |
| 2026-04-27 14:30 | -23.06773 | -46.88216 | 9000 ft | 181 kts | 105° |
| 2026-04-27 14:30 | -23.07090 | -46.86896 | 9326 ft | 181 kts | 105° |
| 2026-04-27 14:30 | -23.07408 | -46.85573 | 9645 ft | 181 kts | 105° |
| 2026-04-27 14:31 | -23.07723 | -46.84249 | 9969 ft | 181 kts | 105° |
| 2026-04-27 14:31 | -23.08041 | -46.82926 | 10287 ft | 182 kts | 105° |
| 2026-04-27 14:31 | -23.08358 | -46.81599 | 10619 ft | 182 kts | 105° |
| 2026-04-27 14:31 | -23.08672 | -46.80283 | 10936 ft | 183 kts | 105° |
| 2026-04-27 14:32 | -23.08992 | -46.78947 | 11261 ft | 183 kts | 105° |
| 2026-04-27 14:32 | -23.09312 | -46.77608 | 11584 ft | 184 kts | 105° |
| 2026-04-27 14:32 | -23.09633 | -46.76266 | 11907 ft | 183 kts | 105° |
| 2026-04-27 14:32 | -23.09962 | -46.74886 | 11999 ft | 196 kts | 105° |
| 2026-04-27 14:33 | -23.10318 | -46.73414 | 12008 ft | 206 kts | 105° |
| 2026-04-27 14:33 | -23.10686 | -46.71879 | 12011 ft | 213 kts | 105° |
| 2026-04-27 14:33 | -23.11061 | -46.70307 | 12012 ft | 217 kts | 105° |
| 2026-04-27 14:33 | -23.11441 | -46.68713 | 12009 ft | 219 kts | 105° |
| 2026-04-27 14:34 | -23.11822 | -46.67109 | 12010 ft | 220 kts | 105° |
| 2026-04-27 14:34 | -23.12205 | -46.65500 | 12009 ft | 221 kts | 105° |
| 2026-04-27 14:34 | -23.12592 | -46.63886 | 12010 ft | 222 kts | 105° |
| 2026-04-27 14:34 | -23.12980 | -46.62257 | 12011 ft | 224 kts | 105° |
| 2026-04-27 14:35 | -23.13371 | -46.60611 | 12010 ft | 226 kts | 105° |
| 2026-04-27 14:35 | -23.13766 | -46.58948 | 12011 ft | 228 kts | 105° |
| 2026-04-27 14:35 | -23.14164 | -46.57278 | 12011 ft | 229 kts | 105° |
| 2026-04-27 14:35 | -23.14562 | -46.55599 | 12011 ft | 230 kts | 105° |
| 2026-04-27 14:36 | -23.14961 | -46.53916 | 12011 ft | 230 kts | 105° |
| 2026-04-27 14:36 | -23.15362 | -46.52228 | 12011 ft | 231 kts | 105° |
| 2026-04-27 14:36 | -23.15761 | -46.50540 | 12008 ft | 231 kts | 105° |
| 2026-04-27 14:36 | -23.16161 | -46.48851 | 12007 ft | 230 kts | 105° |
| 2026-04-27 14:37 | -23.16560 | -46.47166 | 12008 ft | 230 kts | 105° |
| 2026-04-27 14:37 | -23.16960 | -46.45481 | 12006 ft | 230 kts | 105° |
| 2026-04-27 14:37 | -23.17358 | -46.43795 | 12005 ft | 230 kts | 105° |
| 2026-04-27 14:37 | -23.17757 | -46.42110 | 12006 ft | 231 kts | 105° |
| 2026-04-27 14:38 | -23.18157 | -46.40419 | 12006 ft | 231 kts | 105° |
| 2026-04-27 14:38 | -23.18557 | -46.38728 | 12003 ft | 231 kts | 105° |
| 2026-04-27 14:38 | -23.18955 | -46.37041 | 12002 ft | 230 kts | 105° |
| 2026-04-27 14:38 | -23.19352 | -46.35356 | 12001 ft | 230 kts | 105° |
| 2026-04-27 14:39 | -23.19750 | -46.33671 | 12001 ft | 230 kts | 105° |
| 2026-04-27 14:39 | -23.20147 | -46.31985 | 12000 ft | 230 kts | 105° |
| 2026-04-27 14:39 | -23.20546 | -46.30297 | 11998 ft | 231 kts | 105° |
| 2026-04-27 14:39 | -23.20942 | -46.28608 | 11997 ft | 230 kts | 105° |
| 2026-04-27 14:40 | -23.21339 | -46.26924 | 11997 ft | 230 kts | 105° |
| 2026-04-27 14:40 | -23.21735 | -46.25237 | 11997 ft | 230 kts | 105° |
| 2026-04-27 14:40 | -23.22133 | -46.23551 | 11996 ft | 230 kts | 105° |
| 2026-04-27 14:40 | -23.22530 | -46.21864 | 11996 ft | 230 kts | 105° |
| 2026-04-27 14:41 | -23.22925 | -46.20176 | 11996 ft | 230 kts | 105° |
| 2026-04-27 14:41 | -23.23320 | -46.18491 | 11996 ft | 230 kts | 105° |
| 2026-04-27 14:41 | -23.23717 | -46.16803 | 11996 ft | 230 kts | 105° |
| 2026-04-27 14:41 | -23.24114 | -46.15116 | 11996 ft | 230 kts | 105° |
| 2026-04-27 14:42 | -23.24508 | -46.13432 | 11995 ft | 230 kts | 105° |
| 2026-04-27 14:42 | -23.24901 | -46.11749 | 11996 ft | 230 kts | 105° |
| 2026-04-27 14:42 | -23.25296 | -46.10064 | 11995 ft | 230 kts | 105° |
| 2026-04-27 14:42 | -23.25692 | -46.08377 | 11996 ft | 230 kts | 105° |
| 2026-04-27 14:43 | -23.26086 | -46.06692 | 11996 ft | 230 kts | 105° |
| 2026-04-27 14:43 | -23.26481 | -46.05003 | 11994 ft | 230 kts | 105° |
| 2026-04-27 14:43 | -23.26875 | -46.03318 | 11992 ft | 230 kts | 105° |
| 2026-04-27 14:43 | -23.27268 | -46.01632 | 11995 ft | 230 kts | 105° |
| 2026-04-27 14:44 | -23.27661 | -45.99948 | 11995 ft | 230 kts | 105° |
| 2026-04-27 14:44 | -23.28055 | -45.98263 | 11992 ft | 230 kts | 105° |
| 2026-04-27 14:44 | -23.28448 | -45.96577 | 11996 ft | 230 kts | 105° |
| 2026-04-27 14:44 | -23.28841 | -45.94888 | 11995 ft | 230 kts | 105° |
| 2026-04-27 14:45 | -23.29234 | -45.93202 | 11996 ft | 230 kts | 105° |
| 2026-04-27 14:45 | -23.29626 | -45.91519 | 11990 ft | 230 kts | 105° |
| 2026-04-27 14:45 | -23.30018 | -45.89834 | 11996 ft | 230 kts | 105° |
| 2026-04-27 14:45 | -23.30410 | -45.88148 | 11996 ft | 230 kts | 105° |
| 2026-04-27 14:46 | -23.30803 | -45.86459 | 11990 ft | 230 kts | 105° |
| 2026-04-27 14:46 | -23.31190 | -45.84795 | 11990 ft | 230 kts | 105° |
| 2026-04-27 14:46 | -23.31581 | -45.83109 | 11992 ft | 230 kts | 105° |
| 2026-04-27 14:46 | -23.31974 | -45.81421 | 11995 ft | 230 kts | 105° |
| 2026-04-27 14:47 | -23.32365 | -45.79729 | 11995 ft | 231 kts | 105° |
| 2026-04-27 14:47 | -23.32758 | -45.78037 | 11995 ft | 231 kts | 105° |
| 2026-04-27 14:47 | -23.33151 | -45.76347 | 11996 ft | 230 kts | 105° |
| 2026-04-27 14:47 | -23.33541 | -45.74656 | 11995 ft | 230 kts | 105° |
| 2026-04-27 14:48 | -23.33933 | -45.72966 | 11995 ft | 230 kts | 105° |
| 2026-04-27 14:48 | -23.34713 | -45.69593 | 11995 ft | 230 kts | 105° |
| 2026-04-27 14:48 | -23.35104 | -45.67906 | 11995 ft | 230 kts | 105° |
| 2026-04-27 14:49 | -23.35493 | -45.66218 | 11995 ft | 230 kts | 104° |
| 2026-04-27 14:49 | -23.35882 | -45.64527 | 11995 ft | 230 kts | 105° |
| 2026-04-27 14:49 | -23.36274 | -45.62838 | 11988 ft | 230 kts | 105° |
| 2026-04-27 14:49 | -23.36663 | -45.61150 | 11989 ft | 230 kts | 105° |
| 2026-04-27 14:50 | -23.37051 | -45.59466 | 11990 ft | 230 kts | 105° |
| 2026-04-27 14:50 | -23.37438 | -45.57778 | 11983 ft | 230 kts | 105° |
| 2026-04-27 14:50 | -23.37830 | -45.56090 | 11996 ft | 230 kts | 105° |
| 2026-04-27 14:50 | -23.38219 | -45.54401 | 11996 ft | 230 kts | 105° |
| 2026-04-27 14:51 | -23.38607 | -45.52711 | 11997 ft | 230 kts | 104° |
| 2026-04-27 14:51 | -23.38801 | -45.50990 | 11992 ft | 230 kts | 87° |
| 2026-04-27 14:51 | -23.38509 | -45.49281 | 11995 ft | 230 kts | 77° |
| 2026-04-27 14:51 | -23.38262 | -45.48161 | 11996 ft | 230 kts | 77° |
| 2026-04-27 14:52 | -23.37778 | -45.45893 | 11998 ft | 230 kts | 77° |
| 2026-04-27 14:52 | -23.37417 | -45.44194 | 11997 ft | 230 kts | 77° |
| 2026-04-27 14:52 | -23.37055 | -45.42494 | 11995 ft | 230 kts | 77° |
| 2026-04-27 14:52 | -23.36692 | -45.40796 | 11994 ft | 230 kts | 77° |
| 2026-04-27 14:53 | -23.36330 | -45.39101 | 11996 ft | 230 kts | 77° |
| 2026-04-27 14:53 | -23.35967 | -45.37404 | 11997 ft | 231 kts | 77° |
| 2026-04-27 14:53 | -23.35604 | -45.35703 | 11991 ft | 231 kts | 77° |
| 2026-04-27 14:53 | -23.35241 | -45.34004 | 11996 ft | 231 kts | 77° |
| 2026-04-27 14:54 | -23.34877 | -45.32304 | 11994 ft | 230 kts | 77° |
| 2026-04-27 14:54 | -23.34513 | -45.30608 | 11997 ft | 230 kts | 77° |
| 2026-04-27 14:54 | -23.34149 | -45.28911 | 11992 ft | 230 kts | 77° |
| 2026-04-27 14:54 | -23.33786 | -45.27214 | 11995 ft | 230 kts | 77° |
| 2026-04-27 14:55 | -23.33422 | -45.25517 | 11995 ft | 230 kts | 77° |
| 2026-04-27 14:55 | -23.33062 | -45.23846 | 11998 ft | 230 kts | 77° |
| 2026-04-27 14:55 | -23.32698 | -45.22146 | 11996 ft | 230 kts | 77° |
| 2026-04-27 14:55 | -23.32333 | -45.20451 | 11996 ft | 230 kts | 77° |
| 2026-04-27 14:56 | -23.31969 | -45.18754 | 11995 ft | 230 kts | 77° |
| 2026-04-27 14:56 | -23.31604 | -45.17058 | 11996 ft | 230 kts | 77° |
| 2026-04-27 14:56 | -23.31238 | -45.15364 | 11995 ft | 230 kts | 77° |
| 2026-04-27 14:56 | -23.30873 | -45.13668 | 11996 ft | 230 kts | 77° |
| 2026-04-27 14:57 | -23.30509 | -45.11975 | 11991 ft | 230 kts | 77° |
| 2026-04-27 14:57 | -23.30144 | -45.10281 | 11995 ft | 230 kts | 77° |
| 2026-04-27 14:57 | -23.29779 | -45.08588 | 11996 ft | 230 kts | 77° |
| 2026-04-27 14:57 | -23.29413 | -45.06896 | 11990 ft | 230 kts | 77° |
| 2026-04-27 14:58 | -23.29047 | -45.05203 | 11996 ft | 230 kts | 77° |
| 2026-04-27 14:58 | -23.28683 | -45.03492 | 11982 ft | 238 kts | 78° |
| 2026-04-27 14:58 | -23.28300 | -45.01689 | 11995 ft | 251 kts | 77° |
| 2026-04-27 14:58 | -23.27897 | -44.99810 | 11996 ft | 259 kts | 77° |
| 2026-04-27 14:59 | -23.27480 | -44.97888 | 11991 ft | 263 kts | 77° |
| 2026-04-27 14:59 | -23.27056 | -44.95939 | 11997 ft | 266 kts | 77° |
| 2026-04-27 14:59 | -23.26631 | -44.93976 | 11997 ft | 267 kts | 77° |
| 2026-04-27 14:59 | -23.26204 | -44.92006 | 11997 ft | 268 kts | 77° |
| 2026-04-27 15:00 | -23.25775 | -44.90032 | 11996 ft | 268 kts | 77° |
| 2026-04-27 15:00 | -23.25345 | -44.88054 | 11994 ft | 269 kts | 77° |
| 2026-04-27 15:00 | -23.24913 | -44.86072 | 11996 ft | 270 kts | 77° |
| 2026-04-27 15:00 | -23.24482 | -44.84084 | 11996 ft | 270 kts | 77° |
| 2026-04-27 15:01 | -23.24050 | -44.82096 | 11994 ft | 270 kts | 77° |
| 2026-04-27 15:01 | -23.23618 | -44.80108 | 11996 ft | 270 kts | 77° |
| 2026-04-27 15:01 | -23.23192 | -44.78152 | 11992 ft | 270 kts | 77° |
| 2026-04-27 15:01 | -23.22760 | -44.76170 | 11995 ft | 269 kts | 77° |
| 2026-04-27 15:02 | -23.22326 | -44.74189 | 11994 ft | 269 kts | 77° |
| 2026-04-27 15:02 | -23.21893 | -44.72209 | 11994 ft | 269 kts | 77° |
| 2026-04-27 15:02 | -23.21462 | -44.70229 | 11996 ft | 269 kts | 77° |
| 2026-04-27 15:02 | -23.21031 | -44.68251 | 11996 ft | 269 kts | 77° |
| 2026-04-27 15:03 | -23.20598 | -44.66277 | 11994 ft | 268 kts | 77° |
| 2026-04-27 15:03 | -23.20165 | -44.64305 | 11995 ft | 268 kts | 77° |
| 2026-04-27 15:03 | -23.19735 | -44.62334 | 11995 ft | 268 kts | 77° |
| 2026-04-27 15:03 | -23.19303 | -44.60361 | 11996 ft | 268 kts | 77° |
| 2026-04-27 15:04 | -23.18870 | -44.58391 | 11995 ft | 268 kts | 77° |
| 2026-04-27 15:04 | -23.18437 | -44.56420 | 11995 ft | 268 kts | 77° |
| 2026-04-27 15:04 | -23.17802 | -44.54527 | 11982 ft | 268 kts | 62° |
| 2026-04-27 15:04 | -23.16866 | -44.52779 | 11996 ft | 268 kts | 61° |
| 2026-04-27 15:05 | -23.15963 | -44.51013 | 11995 ft | 268 kts | 62° |
| 2026-04-27 15:05 | -23.15058 | -44.49245 | 11996 ft | 268 kts | 61° |
| 2026-04-27 15:05 | -23.14144 | -44.47483 | 11995 ft | 268 kts | 61° |
| 2026-04-27 15:05 | -23.13229 | -44.45721 | 11994 ft | 268 kts | 61° |
| 2026-04-27 15:06 | -23.12315 | -44.43959 | 11989 ft | 268 kts | 61° |
| 2026-04-27 15:06 | -23.11403 | -44.42196 | 11995 ft | 268 kts | 61° |
| 2026-04-27 15:06 | -23.10489 | -44.40434 | 11996 ft | 268 kts | 61° |
| 2026-04-27 15:06 | -23.09576 | -44.38674 | 11995 ft | 268 kts | 61° |
| 2026-04-27 15:07 | -23.08661 | -44.36912 | 11996 ft | 268 kts | 61° |
| 2026-04-27 15:07 | -23.07748 | -44.35150 | 11995 ft | 268 kts | 61° |
| 2026-04-27 15:07 | -23.06833 | -44.33390 | 11991 ft | 268 kts | 61° |
| 2026-04-27 15:07 | -23.05919 | -44.31629 | 11996 ft | 268 kts | 61° |
| 2026-04-27 15:08 | -23.05004 | -44.29868 | 11996 ft | 268 kts | 61° |
| 2026-04-27 15:08 | -23.04090 | -44.28110 | 11994 ft | 268 kts | 61° |
| 2026-04-27 15:08 | -23.03175 | -44.26349 | 11995 ft | 268 kts | 61° |
| 2026-04-27 15:08 | -23.02259 | -44.24588 | 11994 ft | 268 kts | 61° |
| 2026-04-27 15:09 | -23.01344 | -44.22830 | 11990 ft | 268 kts | 61° |
| 2026-04-27 15:09 | -23.00428 | -44.21069 | 11996 ft | 268 kts | 61° |
| 2026-04-27 15:09 | -22.99507 | -44.19305 | 11997 ft | 269 kts | 61° |
| 2026-04-27 15:09 | -22.98588 | -44.17536 | 11996 ft | 269 kts | 61° |
| 2026-04-27 15:10 | -22.97666 | -44.15765 | 11990 ft | 269 kts | 61° |
| 2026-04-27 15:10 | -22.96745 | -44.13997 | 11984 ft | 269 kts | 61° |
| 2026-04-27 15:10 | -22.95836 | -44.12254 | 11996 ft | 269 kts | 61° |
| 2026-04-27 15:10 | -22.94915 | -44.10488 | 11993 ft | 269 kts | 61° |
| 2026-04-27 15:11 | -22.93994 | -44.08725 | 11994 ft | 269 kts | 61° |
| 2026-04-27 15:11 | -22.93073 | -44.06961 | 11996 ft | 269 kts | 61° |
| 2026-04-27 15:11 | -22.92154 | -44.05199 | 11995 ft | 269 kts | 61° |
| 2026-04-27 15:11 | -22.91232 | -44.03435 | 11995 ft | 268 kts | 61° |
| 2026-04-27 15:12 | -22.90313 | -44.01676 | 11994 ft | 268 kts | 61° |
| 2026-04-27 15:12 | -22.89391 | -43.99913 | 11997 ft | 269 kts | 61° |
| 2026-04-27 15:12 | -22.88468 | -43.98146 | 11996 ft | 269 kts | 61° |
| 2026-04-27 15:12 | -22.87543 | -43.96378 | 11995 ft | 270 kts | 61° |
| 2026-04-27 15:13 | -22.86931 | -43.95208 | 11995 ft | 270 kts | 61° |
| 2026-04-27 15:13 | -22.86004 | -43.93437 | 11994 ft | 270 kts | 61° |
| 2026-04-27 15:13 | -22.85076 | -43.91663 | 11992 ft | 271 kts | 61° |
| 2026-04-27 15:13 | -22.84147 | -43.89889 | 11997 ft | 270 kts | 61° |
| 2026-04-27 15:14 | -22.83217 | -43.88116 | 11992 ft | 270 kts | 61° |
| 2026-04-27 15:14 | -22.82292 | -43.86347 | 11995 ft | 270 kts | 61° |
| 2026-04-27 15:14 | -22.81366 | -43.84581 | 11983 ft | 269 kts | 61° |
| 2026-04-27 15:14 | -22.80441 | -43.82818 | 11991 ft | 269 kts | 61° |
| 2026-04-27 15:15 | -22.79518 | -43.81058 | 11993 ft | 268 kts | 61° |
| 2026-04-27 15:15 | -22.78595 | -43.79299 | 11994 ft | 269 kts | 61° |
| 2026-04-27 15:15 | -22.77671 | -43.77539 | 11994 ft | 269 kts | 61° |
| 2026-04-27 15:15 | -22.76748 | -43.75783 | 11994 ft | 268 kts | 61° |
| 2026-04-27 15:16 | -22.75824 | -43.74023 | 11989 ft | 269 kts | 61° |
| 2026-04-27 15:16 | -22.74900 | -43.72265 | 11983 ft | 268 kts | 61° |
| 2026-04-27 15:16 | -22.73971 | -43.70492 | 11764 ft | 276 kts | 61° |
| 2026-04-27 15:16 | -22.73010 | -43.68638 | 11233 ft | 287 kts | 61° |
| 2026-04-27 15:17 | -22.72020 | -43.66728 | 10657 ft | 293 kts | 61° |
| 2026-04-27 15:17 | -22.71002 | -43.64815 | 10080 ft | 286 kts | 60° |
| 2026-04-27 15:17 | -22.70066 | -43.63073 | 9549 ft | 250 kts | 60° |
| 2026-04-27 15:17 | -22.69231 | -43.61544 | 9093 ft | 222 kts | 60° |
| 2026-04-27 15:18 | -22.68504 | -43.60166 | 8689 ft | 200 kts | 61° |
| 2026-04-27 15:18 | -22.67838 | -43.58881 | 8031 ft | 195 kts | 61° |
| 2026-04-27 15:18 | -22.67176 | -43.57609 | 7336 ft | 198 kts | 61° |
| 2026-04-27 15:18 | -22.66494 | -43.56310 | 6635 ft | 199 kts | 61° |
| 2026-04-27 15:19 | -22.65833 | -43.55059 | 6400 ft | 177 kts | 60° |
| 2026-04-27 15:19 | -22.65276 | -43.54016 | 6385 ft | 143 kts | 60° |
| 2026-04-27 15:19 | -22.64820 | -43.53161 | 6376 ft | 122 kts | 60° |
| 2026-04-27 15:19 | -22.64462 | -43.52382 | 6325 ft | 114 kts | 79° |
| 2026-04-27 15:20 | -22.64570 | -43.51544 | 6192 ft | 112 kts | 119° |
| 2026-04-27 15:20 | -22.65016 | -43.50859 | 6059 ft | 113 kts | 127° |
| 2026-04-27 15:20 | -22.65482 | -43.50143 | 5849 ft | 119 kts | 127° |
| 2026-04-27 15:20 | -22.65974 | -43.49403 | 5623 ft | 122 kts | 127° |
| 2026-04-27 15:21 | -22.66477 | -43.48649 | 5388 ft | 124 kts | 128° |
| 2026-04-27 15:21 | -22.66984 | -43.47886 | 5146 ft | 125 kts | 127° |
| 2026-04-27 15:21 | -22.67489 | -43.47118 | 4904 ft | 126 kts | 126° |
| 2026-04-27 15:21 | -22.68002 | -43.46356 | 4669 ft | 125 kts | 129° |
| 2026-04-27 15:22 | -22.68531 | -43.45606 | 4430 ft | 126 kts | 128° |
| 2026-04-27 15:22 | -22.69057 | -43.44837 | 4126 ft | 128 kts | 127° |
| 2026-04-27 15:22 | -22.69560 | -43.44066 | 3932 ft | 123 kts | 127° |
| 2026-04-27 15:22 | -22.70054 | -43.43323 | 3770 ft | 121 kts | 126° |
| 2026-04-27 15:23 | -22.70541 | -43.42583 | 3607 ft | 120 kts | 127° |
| 2026-04-27 15:23 | -22.71026 | -43.41850 | 3448 ft | 120 kts | 126° |
| 2026-04-27 15:23 | -22.71507 | -43.41122 | 3300 ft | 117 kts | 127° |
| 2026-04-27 15:23 | -22.71981 | -43.40410 | 3143 ft | 116 kts | 127° |
| 2026-04-27 15:24 | -22.72446 | -43.39698 | 2986 ft | 115 kts | 128° |
| 2026-04-27 15:24 | -22.72906 | -43.39003 | 2831 ft | 112 kts | 126° |
| 2026-04-27 15:24 | -22.73360 | -43.38319 | 2683 ft | 112 kts | 128° |
| 2026-04-27 15:24 | -22.73807 | -43.37639 | 2534 ft | 112 kts | 128° |
| 2026-04-27 15:25 | -22.74260 | -43.36951 | 2384 ft | 113 kts | 126° |
| 2026-04-27 15:25 | -22.74708 | -43.36270 | 2238 ft | 109 kts | 128° |
| 2026-04-27 15:25 | -22.75152 | -43.35604 | 2094 ft | 109 kts | 128° |
| 2026-04-27 15:25 | -22.75591 | -43.34933 | 1949 ft | 110 kts | 126° |
| 2026-04-27 15:26 | -22.76033 | -43.34259 | 1803 ft | 109 kts | 127° |
| 2026-04-27 15:26 | -22.76482 | -43.33589 | 1656 ft | 111 kts | 128° |
| 2026-04-27 15:26 | -22.76928 | -43.32905 | 1510 ft | 111 kts | 127° |
| 2026-04-27 15:26 | -22.77381 | -43.32226 | 1360 ft | 110 kts | 127° |
| 2026-04-27 15:27 | -22.77821 | -43.31561 | 1216 ft | 108 kts | 128° |
| 2026-04-27 15:27 | -22.78253 | -43.30898 | 1074 ft | 108 kts | 127° |
| 2026-04-27 15:27 | -22.78692 | -43.30241 | 931 ft | 107 kts | 127° |
| 2026-04-27 15:27 | -22.79123 | -43.29581 | 788 ft | 107 kts | 128° |
| 2026-04-27 15:28 | -22.79557 | -43.28925 | 645 ft | 107 kts | 126° |
| 2026-04-27 15:28 | -22.79992 | -43.28270 | 502 ft | 107 kts | 127° |
| 2026-04-27 15:28 | -22.80415 | -43.27622 | 361 ft | 101 kts | 128° |
| 2026-04-27 15:28 | -22.80806 | -43.27032 | 232 ft | 91 kts | 126° |
| 2026-04-27 15:29 | -22.81155 | -43.26505 | 116 ft | 82 kts | 127° |
| 2026-04-27 15:29 | -22.81472 | -43.26020 | 27 ft | 75 kts | 127° |
| 2026-04-27 15:29 | -22.81751 | -43.25607 | 19 ft | 44 kts | 101° |
| 2026-04-27 15:29 | -22.81751 | -43.25538 | 18 ft | 0 kts | 70° |
| 2026-04-27 15:30 | -22.81750 | -43.25537 | 18 ft | 2 kts | 70° |
| 2026-04-27 15:30 | -22.81742 | -43.25457 | 18 ft | 19 kts | 94° |
| 2026-04-27 15:30 | -22.81762 | -43.25291 | 17 ft | 24 kts | 94° |
| 2026-04-27 15:30 | -22.81656 | -43.25176 | 16 ft | 24 kts | 33° |
| 2026-04-27 15:31 | -22.81515 | -43.25072 | 16 ft | 24 kts | 9° |
| 2026-04-27 15:31 | -22.81425 | -43.25201 | 16 ft | 23 kts | 307° |
| 2026-04-27 15:31 | -22.81358 | -43.25204 | 16 ft | 0 kts | 38° |